sensor_id;sensor_type;location;lat;lon;timestamp;P1;durP1;ratioP1;P2;durP2;ratioP2
22332;SDS011;11334;36.986;-121.936;2023-10-13T00:01:55;16.65;;;5.95;;
22332;SDS011;11334;36.986;-121.936;2023-10-13T00:04:24;18.70;;;6.85;;
22332;SDS011;11334;36.986;-121.936;2023-10-13T00:06:51;24.08;;;6.40;;
22332;SDS011;11334;36.986;-121.936;2023-10-13T00:09:19;20.48;;;6.10;;
22332;SDS011;11334;36.986;-121.936;2023-10-13T00:11:51;18.38;;;7.40;;
22332;SDS011;11334;36.986;-121.936;2023-10-13T00:14:19;22.33;;;7.25;;
22332;SDS011;11334;36.986;-121.936;2023-10-13T00:16:56;19.55;;;6.43;;
22332;SDS011;11334;36.986;-121.936;2023-10-13T00:19:45;21.48;;;6.00;;
22332;SDS011;11334;36.986;-121.936;2023-10-13T00:22:18;21.75;;;6.63;;
22332;SDS011;11334;36.986;-121.936;2023-10-13T00:24:45;22.90;;;6.68;;
22332;SDS011;11334;36.986;-121.936;2023-10-13T00:27:12;24.85;;;6.68;;
22332;SDS011;11334;36.986;-121.936;2023-10-13T00:29:58;22.00;;;7.03;;
22332;SDS011;11334;36.986;-121.936;2023-10-13T00:32:43;16.45;;;6.03;;
22332;SDS011;11334;36.986;-121.936;2023-10-13T00:35:12;20.77;;;6.53;;
22332;SDS011;11334;36.986;-121.936;2023-10-13T00:37:53;20.90;;;5.80;;
22332;SDS011;11334;36.986;-121.936;2023-10-13T00:40:21;16.20;;;6.18;;
22332;SDS011;11334;36.986;-121.936;2023-10-13T00:42:59;16.73;;;6.00;;
22332;SDS011;11334;36.986;-121.936;2023-10-13T00:48:37;17.55;;;6.00;;
22332;SDS011;11334;36.986;-121.936;2023-10-13T00:51:09;20.50;;;6.65;;
22332;SDS011;11334;36.986;-121.936;2023-10-13T00:53:55;19.50;;;5.50;;
22332;SDS011;11334;36.986;-121.936;2023-10-13T00:56:22;21.02;;;6.80;;
22332;SDS011;11334;36.986;-121.936;2023-10-13T00:58:54;22.27;;;7.05;;
22332;SDS011;11334;36.986;-121.936;2023-10-13T01:01:23;25.00;;;7.55;;
22332;SDS011;11334;36.986;-121.936;2023-10-13T01:04:00;27.67;;;7.18;;
22332;SDS011;11334;36.986;-121.936;2023-10-13T01:06:30;26.35;;;7.40;;
22332;SDS011;11334;36.986;-121.936;2023-10-13T01:08:58;24.02;;;6.43;;
22332;SDS011;11334;36.986;-121.936;2023-10-13T01:11:25;26.55;;;6.82;;
22332;SDS011;11334;36.986;-121.936;2023-10-13T01:13:55;25.65;;;6.38;;
22332;SDS011;11334;36.986;-121.936;2023-10-13T01:16:22;17.25;;;6.28;;
22332;SDS011;11334;36.986;-121.936;2023-10-13T01:18:52;21.42;;;6.53;;
22332;SDS011;11334;36.986;-121.936;2023-10-13T01:21:23;19.42;;;6.50;;
22332;SDS011;11334;36.986;-121.936;2023-10-13T01:23:53;25.75;;;6.35;;
22332;SDS011;11334;36.986;-121.936;2023-10-13T01:26:19;18.38;;;6.07;;
22332;SDS011;11334;36.986;-121.936;2023-10-13T01:28:56;28.77;;;6.35;;
22332;SDS011;11334;36.986;-121.936;2023-10-13T01:31:23;21.48;;;6.97;;
22332;SDS011;11334;36.986;-121.936;2023-10-13T01:33:52;20.08;;;6.60;;
22332;SDS011;11334;36.986;-121.936;2023-10-13T01:36:20;20.40;;;6.88;;
22332;SDS011;11334;36.986;-121.936;2023-10-13T01:38:47;22.95;;;5.50;;
22332;SDS011;11334;36.986;-121.936;2023-10-13T01:41:15;18.67;;;6.10;;
22332;SDS011;11334;36.986;-121.936;2023-10-13T01:43:42;15.93;;;5.32;;
22332;SDS011;11334;36.986;-121.936;2023-10-13T01:46:09;18.25;;;6.75;;
22332;SDS011;11334;36.986;-121.936;2023-10-13T01:48:39;24.55;;;6.13;;
22332;SDS011;11334;36.986;-121.936;2023-10-13T01:51:06;21.33;;;6.43;;
22332;SDS011;11334;36.986;-121.936;2023-10-13T01:53:38;21.30;;;6.05;;
22332;SDS011;11334;36.986;-121.936;2023-10-13T01:56:09;19.02;;;6.57;;
22332;SDS011;11334;36.986;-121.936;2023-10-13T01:58:39;16.30;;;6.40;;
22332;SDS011;11334;36.986;-121.936;2023-10-13T02:01:13;19.33;;;6.60;;
22332;SDS011;11334;36.986;-121.936;2023-10-13T02:03:52;14.52;;;5.90;;
22332;SDS011;11334;36.986;-121.936;2023-10-13T02:06:27;16.17;;;5.93;;
22332;SDS011;11334;36.986;-121.936;2023-10-13T02:08:58;22.17;;;6.00;;
22332;SDS011;11334;36.986;-121.936;2023-10-13T02:11:49;25.40;;;7.13;;
22332;SDS011;11334;36.986;-121.936;2023-10-13T02:14:20;19.50;;;6.43;;
22332;SDS011;11334;36.986;-121.936;2023-10-13T02:16:53;17.60;;;5.80;;
22332;SDS011;11334;36.986;-121.936;2023-10-13T02:19:38;22.13;;;6.75;;
22332;SDS011;11334;36.986;-121.936;2023-10-13T02:22:08;13.90;;;5.47;;
22332;SDS011;11334;36.986;-121.936;2023-10-13T02:24:36;22.05;;;5.53;;
22332;SDS011;11334;36.986;-121.936;2023-10-13T02:27:06;17.75;;;5.47;;
22332;SDS011;11334;36.986;-121.936;2023-10-13T02:29:42;16.83;;;6.32;;
22332;SDS011;11334;36.986;-121.936;2023-10-13T02:32:11;21.83;;;6.25;;
22332;SDS011;11334;36.986;-121.936;2023-10-13T02:34:46;17.75;;;5.88;;
22332;SDS011;11334;36.986;-121.936;2023-10-13T02:37:13;17.38;;;6.25;;
22332;SDS011;11334;36.986;-121.936;2023-10-13T02:39:40;18.58;;;5.72;;
22332;SDS011;11334;36.986;-121.936;2023-10-13T02:42:09;17.27;;;5.63;;
22332;SDS011;11334;36.986;-121.936;2023-10-13T02:44:48;19.80;;;6.03;;
22332;SDS011;11334;36.986;-121.936;2023-10-13T02:47:16;20.58;;;5.05;;
22332;SDS011;11334;36.986;-121.936;2023-10-13T02:49:44;22.27;;;5.82;;
22332;SDS011;11334;36.986;-121.936;2023-10-13T02:52:13;17.92;;;5.35;;
22332;SDS011;11334;36.986;-121.936;2023-10-13T02:54:39;13.85;;;5.13;;
22332;SDS011;11334;36.986;-121.936;2023-10-13T02:57:12;13.43;;;4.88;;
22332;SDS011;11334;36.986;-121.936;2023-10-13T02:59:40;12.82;;;5.07;;
22332;SDS011;11334;36.986;-121.936;2023-10-13T03:02:14;12.02;;;5.07;;
22332;SDS011;11334;36.986;-121.936;2023-10-13T03:05:03;13.38;;;5.25;;
22332;SDS011;11334;36.986;-121.936;2023-10-13T03:07:39;13.65;;;4.75;;
22332;SDS011;11334;36.986;-121.936;2023-10-13T03:10:08;18.23;;;5.75;;
22332;SDS011;11334;36.986;-121.936;2023-10-13T03:12:38;9.95;;;4.13;;
22332;SDS011;11334;36.986;-121.936;2023-10-13T03:15:06;11.63;;;4.78;;
22332;SDS011;11334;36.986;-121.936;2023-10-13T03:17:43;19.40;;;5.97;;
22332;SDS011;11334;36.986;-121.936;2023-10-13T03:20:10;22.35;;;5.63;;
22332;SDS011;11334;36.986;-121.936;2023-10-13T03:22:39;20.83;;;7.07;;
22332;SDS011;11334;36.986;-121.936;2023-10-13T03:25:06;26.52;;;8.57;;
22332;SDS011;11334;36.986;-121.936;2023-10-13T03:27:36;20.30;;;7.07;;
22332;SDS011;11334;36.986;-121.936;2023-10-13T03:30:26;20.40;;;7.22;;
22332;SDS011;11334;36.986;-121.936;2023-10-13T03:33:08;26.33;;;7.10;;
22332;SDS011;11334;36.986;-121.936;2023-10-13T03:35:46;24.90;;;7.40;;
22332;SDS011;11334;36.986;-121.936;2023-10-13T03:38:19;25.92;;;7.15;;
22332;SDS011;11334;36.986;-121.936;2023-10-13T03:40:52;19.15;;;6.15;;
22332;SDS011;11334;36.986;-121.936;2023-10-13T03:43:22;22.92;;;6.35;;
22332;SDS011;11334;36.986;-121.936;2023-10-13T03:45:50;23.85;;;6.32;;
22332;SDS011;11334;36.986;-121.936;2023-10-13T03:48:34;18.02;;;6.43;;
22332;SDS011;11334;36.986;-121.936;2023-10-13T03:51:17;19.38;;;5.70;;
22332;SDS011;11334;36.986;-121.936;2023-10-13T03:53:43;25.63;;;6.82;;
22332;SDS011;11334;36.986;-121.936;2023-10-13T03:56:21;25.60;;;6.95;;
22332;SDS011;11334;36.986;-121.936;2023-10-13T03:58:55;16.60;;;6.43;;
22332;SDS011;11334;36.986;-121.936;2023-10-13T04:01:32;21.25;;;6.97;;
22332;SDS011;11334;36.986;-121.936;2023-10-13T04:04:17;21.85;;;6.50;;
22332;SDS011;11334;36.986;-121.936;2023-10-13T04:07:02;17.60;;;6.03;;
22332;SDS011;11334;36.986;-121.936;2023-10-13T04:09:35;17.10;;;5.40;;
22332;SDS011;11334;36.986;-121.936;2023-10-13T04:12:03;13.00;;;5.53;;
22332;SDS011;11334;36.986;-121.936;2023-10-13T04:14:40;19.25;;;5.63;;
22332;SDS011;11334;36.986;-121.936;2023-10-13T04:17:26;18.33;;;5.72;;
22332;SDS011;11334;36.986;-121.936;2023-10-13T04:19:52;12.32;;;5.10;;
22332;SDS011;11334;36.986;-121.936;2023-10-13T04:22:39;18.33;;;5.30;;
22332;SDS011;11334;36.986;-121.936;2023-10-13T04:25:29;10.50;;;4.65;;
22332;SDS011;11334;36.986;-121.936;2023-10-13T04:28:05;10.82;;;4.20;;
22332;SDS011;11334;36.986;-121.936;2023-10-13T04:33:25;13.73;;;5.00;;
22332;SDS011;11334;36.986;-121.936;2023-10-13T04:36:12;11.35;;;5.32;;
22332;SDS011;11334;36.986;-121.936;2023-10-13T04:38:40;10.52;;;4.75;;
22332;SDS011;11334;36.986;-121.936;2023-10-13T04:41:32;11.25;;;5.28;;
22332;SDS011;11334;36.986;-121.936;2023-10-13T04:44:29;13.00;;;4.75;;
22332;SDS011;11334;36.986;-121.936;2023-10-13T04:46:55;12.75;;;4.82;;
22332;SDS011;11334;36.986;-121.936;2023-10-13T04:49:26;14.15;;;5.10;;
22332;SDS011;11334;36.986;-121.936;2023-10-13T04:52:08;15.57;;;5.63;;
22332;SDS011;11334;36.986;-121.936;2023-10-13T04:57:34;12.57;;;4.95;;
22332;SDS011;11334;36.986;-121.936;2023-10-13T05:00:21;14.63;;;5.90;;
22332;SDS011;11334;36.986;-121.936;2023-10-13T05:02:47;11.43;;;5.28;;
22332;SDS011;11334;36.986;-121.936;2023-10-13T05:05:25;16.80;;;5.68;;
22332;SDS011;11334;36.986;-121.936;2023-10-13T05:08:11;34.63;;;19.27;;
22332;SDS011;11334;36.986;-121.936;2023-10-13T05:10:56;20.10;;;7.28;;
22332;SDS011;11334;36.986;-121.936;2023-10-13T05:13:41;14.35;;;5.50;;
22332;SDS011;11334;36.986;-121.936;2023-10-13T05:16:25;14.73;;;4.70;;
22332;SDS011;11334;36.986;-121.936;2023-10-13T05:19:10;13.52;;;4.82;;
22332;SDS011;11334;36.986;-121.936;2023-10-13T05:21:54;21.70;;;5.30;;
22332;SDS011;11334;36.986;-121.936;2023-10-13T05:24:39;15.68;;;5.15;;
22332;SDS011;11334;36.986;-121.936;2023-10-13T05:27:23;14.85;;;4.88;;
22332;SDS011;11334;36.986;-121.936;2023-10-13T05:30:08;17.55;;;5.18;;
22332;SDS011;11334;36.986;-121.936;2023-10-13T05:32:53;11.80;;;4.65;;
22332;SDS011;11334;36.986;-121.936;2023-10-13T05:35:37;10.32;;;4.55;;
22332;SDS011;11334;36.986;-121.936;2023-10-13T05:38:22;12.38;;;4.85;;
22332;SDS011;11334;36.986;-121.936;2023-10-13T05:41:07;13.18;;;5.10;;
22332;SDS011;11334;36.986;-121.936;2023-10-13T05:43:52;13.70;;;4.85;;
22332;SDS011;11334;36.986;-121.936;2023-10-13T05:46:36;14.05;;;4.10;;
22332;SDS011;11334;36.986;-121.936;2023-10-13T05:49:03;11.77;;;4.15;;
22332;SDS011;11334;36.986;-121.936;2023-10-13T05:51:43;11.93;;;4.60;;
22332;SDS011;11334;36.986;-121.936;2023-10-13T05:54:23;10.02;;;4.55;;
22332;SDS011;11334;36.986;-121.936;2023-10-13T05:56:50;12.55;;;5.10;;
22332;SDS011;11334;36.986;-121.936;2023-10-13T05:59:35;12.10;;;4.10;;
22332;SDS011;11334;36.986;-121.936;2023-10-13T06:02:21;12.57;;;5.05;;
22332;SDS011;11334;36.986;-121.936;2023-10-13T06:05:10;12.60;;;3.90;;
22332;SDS011;11334;36.986;-121.936;2023-10-13T06:07:56;7.97;;;3.95;;
22332;SDS011;11334;36.986;-121.936;2023-10-13T06:10:42;8.65;;;3.42;;
22332;SDS011;11334;36.986;-121.936;2023-10-13T06:13:28;8.43;;;3.60;;
22332;SDS011;11334;36.986;-121.936;2023-10-13T06:16:13;6.47;;;3.22;;
22332;SDS011;11334;36.986;-121.936;2023-10-13T06:18:59;7.22;;;3.20;;
22332;SDS011;11334;36.986;-121.936;2023-10-13T06:21:44;7.22;;;2.72;;
22332;SDS011;11334;36.986;-121.936;2023-10-13T06:24:30;8.55;;;3.53;;
22332;SDS011;11334;36.986;-121.936;2023-10-13T06:27:15;7.03;;;3.35;;
22332;SDS011;11334;36.986;-121.936;2023-10-13T06:30:00;5.60;;;2.83;;
22332;SDS011;11334;36.986;-121.936;2023-10-13T06:32:27;6.18;;;2.83;;
22332;SDS011;11334;36.986;-121.936;2023-10-13T06:34:53;8.38;;;2.85;;
22332;SDS011;11334;36.986;-121.936;2023-10-13T06:37:26;4.22;;;2.47;;
22332;SDS011;11334;36.986;-121.936;2023-10-13T06:39:57;5.32;;;2.85;;
22332;SDS011;11334;36.986;-121.936;2023-10-13T06:42:33;6.15;;;2.72;;
22332;SDS011;11334;36.986;-121.936;2023-10-13T06:45:08;4.57;;;2.58;;
22332;SDS011;11334;36.986;-121.936;2023-10-13T06:47:35;4.72;;;2.75;;
22332;SDS011;11334;36.986;-121.936;2023-10-13T06:50:11;6.07;;;2.58;;
22332;SDS011;11334;36.986;-121.936;2023-10-13T06:52:47;3.90;;;2.65;;
22332;SDS011;11334;36.986;-121.936;2023-10-13T06:55:14;5.63;;;2.85;;
22332;SDS011;11334;36.986;-121.936;2023-10-13T06:58:00;5.03;;;2.50;;
22332;SDS011;11334;36.986;-121.936;2023-10-13T07:00:32;9.35;;;2.90;;
22332;SDS011;11334;36.986;-121.936;2023-10-13T07:03:00;5.28;;;2.25;;
22332;SDS011;11334;36.986;-121.936;2023-10-13T07:05:43;5.18;;;2.40;;
22332;SDS011;11334;36.986;-121.936;2023-10-13T07:08:13;7.35;;;2.10;;
22332;SDS011;11334;36.986;-121.936;2023-10-13T07:13:43;4.93;;;2.22;;
22332;SDS011;11334;36.986;-121.936;2023-10-13T07:16:17;5.22;;;2.20;;
22332;SDS011;11334;36.986;-121.936;2023-10-13T07:18:44;5.30;;;2.35;;
22332;SDS011;11334;36.986;-121.936;2023-10-13T07:21:18;6.30;;;2.33;;
22332;SDS011;11334;36.986;-121.936;2023-10-13T07:23:56;8.85;;;2.58;;
22332;SDS011;11334;36.986;-121.936;2023-10-13T07:26:36;4.72;;;2.25;;
22332;SDS011;11334;36.986;-121.936;2023-10-13T07:29:11;4.40;;;1.83;;
22332;SDS011;11334;36.986;-121.936;2023-10-13T07:31:38;7.30;;;2.63;;
22332;SDS011;11334;36.986;-121.936;2023-10-13T07:34:10;6.05;;;2.58;;
22332;SDS011;11334;36.986;-121.936;2023-10-13T07:36:52;6.55;;;2.25;;
22332;SDS011;11334;36.986;-121.936;2023-10-13T07:39:20;9.02;;;2.45;;
22332;SDS011;11334;36.986;-121.936;2023-10-13T07:41:50;5.40;;;2.08;;
22332;SDS011;11334;36.986;-121.936;2023-10-13T07:44:41;3.47;;;1.80;;
22332;SDS011;11334;36.986;-121.936;2023-10-13T07:47:14;3.30;;;1.88;;
22332;SDS011;11334;36.986;-121.936;2023-10-13T07:49:42;6.35;;;2.17;;
22332;SDS011;11334;36.986;-121.936;2023-10-13T07:52:09;8.32;;;2.05;;
22332;SDS011;11334;36.986;-121.936;2023-10-13T07:54:52;6.60;;;1.98;;
22332;SDS011;11334;36.986;-121.936;2023-10-13T07:57:37;4.03;;;2.13;;
22332;SDS011;11334;36.986;-121.936;2023-10-13T08:00:25;6.97;;;2.55;;
22332;SDS011;11334;36.986;-121.936;2023-10-13T08:03:04;5.22;;;2.28;;
22332;SDS011;11334;36.986;-121.936;2023-10-13T08:05:51;5.28;;;2.00;;
22332;SDS011;11334;36.986;-121.936;2023-10-13T08:08:34;4.63;;;1.90;;
22332;SDS011;11334;36.986;-121.936;2023-10-13T08:11:13;6.57;;;2.00;;
22332;SDS011;11334;36.986;-121.936;2023-10-13T08:13:58;3.80;;;1.70;;
22332;SDS011;11334;36.986;-121.936;2023-10-13T08:16:36;4.90;;;2.22;;
22332;SDS011;11334;36.986;-121.936;2023-10-13T08:19:28;6.65;;;2.15;;
22332;SDS011;11334;36.986;-121.936;2023-10-13T08:22:05;6.30;;;2.10;;
22332;SDS011;11334;36.986;-121.936;2023-10-13T08:24:40;5.40;;;2.58;;
22332;SDS011;11334;36.986;-121.936;2023-10-13T08:27:07;6.10;;;2.30;;
22332;SDS011;11334;36.986;-121.936;2023-10-13T08:29:54;3.45;;;1.67;;
22332;SDS011;11334;36.986;-121.936;2023-10-13T08:32:20;4.55;;;1.92;;
22332;SDS011;11334;36.986;-121.936;2023-10-13T08:34:56;3.70;;;1.92;;
22332;SDS011;11334;36.986;-121.936;2023-10-13T08:37:23;5.25;;;1.85;;
22332;SDS011;11334;36.986;-121.936;2023-10-13T08:40:11;5.65;;;2.13;;
22332;SDS011;11334;36.986;-121.936;2023-10-13T08:43:05;3.53;;;1.88;;
22332;SDS011;11334;36.986;-121.936;2023-10-13T08:45:33;4.88;;;2.00;;
22332;SDS011;11334;36.986;-121.936;2023-10-13T08:48:02;5.88;;;2.60;;
22332;SDS011;11334;36.986;-121.936;2023-10-13T08:50:37;7.20;;;2.65;;
22332;SDS011;11334;36.986;-121.936;2023-10-13T08:53:14;6.47;;;2.70;;
22332;SDS011;11334;36.986;-121.936;2023-10-13T08:55:57;4.40;;;2.08;;
22332;SDS011;11334;36.986;-121.936;2023-10-13T08:58:33;5.80;;;1.98;;
22332;SDS011;11334;36.986;-121.936;2023-10-13T09:01:20;5.13;;;2.10;;
22332;SDS011;11334;36.986;-121.936;2023-10-13T09:04:07;4.25;;;2.22;;
22332;SDS011;11334;36.986;-121.936;2023-10-13T09:06:54;2.53;;;1.85;;
22332;SDS011;11334;36.986;-121.936;2023-10-13T09:14:39;2.90;;;2.20;;
22332;SDS011;11334;36.986;-121.936;2023-10-13T09:17:11;4.22;;;2.38;;
22332;SDS011;11334;36.986;-121.936;2023-10-13T09:19:58;4.43;;;1.83;;
22332;SDS011;11334;36.986;-121.936;2023-10-13T09:22:45;5.53;;;2.40;;
22332;SDS011;11334;36.986;-121.936;2023-10-13T09:28:00;7.78;;;2.28;;
22332;SDS011;11334;36.986;-121.936;2023-10-13T09:30:43;5.60;;;2.10;;
22332;SDS011;11334;36.986;-121.936;2023-10-13T09:33:09;4.97;;;2.20;;
22332;SDS011;11334;36.986;-121.936;2023-10-13T09:35:46;3.67;;;2.15;;
22332;SDS011;11334;36.986;-121.936;2023-10-13T09:38:15;6.43;;;2.25;;
22332;SDS011;11334;36.986;-121.936;2023-10-13T09:40:42;3.92;;;2.28;;
22332;SDS011;11334;36.986;-121.936;2023-10-13T09:43:18;5.32;;;2.75;;
22332;SDS011;11334;36.986;-121.936;2023-10-13T09:45:47;6.50;;;4.03;;
22332;SDS011;11334;36.986;-121.936;2023-10-13T09:48:42;3.17;;;2.67;;
22332;SDS011;11334;36.986;-121.936;2023-10-13T09:51:16;3.70;;;2.65;;
22332;SDS011;11334;36.986;-121.936;2023-10-13T09:56:48;5.05;;;3.40;;
22332;SDS011;11334;36.986;-121.936;2023-10-13T09:59:19;5.97;;;2.65;;
22332;SDS011;11334;36.986;-121.936;2023-10-13T10:02:08;5.13;;;3.60;;
22332;SDS011;11334;36.986;-121.936;2023-10-13T10:04:51;5.57;;;3.95;;
22332;SDS011;11334;36.986;-121.936;2023-10-13T10:07:40;8.13;;;4.03;;
22332;SDS011;11334;36.986;-121.936;2023-10-13T10:10:09;4.32;;;3.80;;
22332;SDS011;11334;36.986;-121.936;2023-10-13T10:15:28;9.23;;;3.55;;
22332;SDS011;11334;36.986;-121.936;2023-10-13T10:18:02;7.18;;;4.22;;
22332;SDS011;11334;36.986;-121.936;2023-10-13T10:20:29;8.13;;;3.67;;
22332;SDS011;11334;36.986;-121.936;2023-10-13T10:23:26;6.45;;;4.00;;
22332;SDS011;11334;36.986;-121.936;2023-10-13T10:26:14;7.30;;;4.18;;
22332;SDS011;11334;36.986;-121.936;2023-10-13T10:28:45;6.20;;;4.88;;
22332;SDS011;11334;36.986;-121.936;2023-10-13T10:31:12;8.40;;;4.43;;
22332;SDS011;11334;36.986;-121.936;2023-10-13T10:33:47;5.75;;;4.38;;
22332;SDS011;11334;36.986;-121.936;2023-10-13T10:36:29;7.43;;;4.90;;
22332;SDS011;11334;36.986;-121.936;2023-10-13T10:38:56;6.18;;;4.40;;
22332;SDS011;11334;36.986;-121.936;2023-10-13T10:41:26;9.13;;;4.70;;
22332;SDS011;11334;36.986;-121.936;2023-10-13T10:44:12;8.43;;;4.63;;
22332;SDS011;11334;36.986;-121.936;2023-10-13T10:46:48;6.70;;;4.60;;
22332;SDS011;11334;36.986;-121.936;2023-10-13T10:49:22;7.63;;;4.45;;
22332;SDS011;11334;36.986;-121.936;2023-10-13T10:52:00;6.18;;;4.50;;
22332;SDS011;11334;36.986;-121.936;2023-10-13T10:54:29;9.30;;;4.50;;
22332;SDS011;11334;36.986;-121.936;2023-10-13T10:56:57;8.90;;;4.78;;
22332;SDS011;11334;36.986;-121.936;2023-10-13T10:59:37;6.90;;;4.82;;
22332;SDS011;11334;36.986;-121.936;2023-10-13T11:02:05;8.32;;;4.60;;
22332;SDS011;11334;36.986;-121.936;2023-10-13T11:04:34;6.40;;;4.60;;
22332;SDS011;11334;36.986;-121.936;2023-10-13T11:07:06;7.95;;;4.57;;
22332;SDS011;11334;36.986;-121.936;2023-10-13T11:09:34;9.05;;;5.03;;
22332;SDS011;11334;36.986;-121.936;2023-10-13T11:12:11;6.55;;;4.47;;
22332;SDS011;11334;36.986;-121.936;2023-10-13T11:14:49;12.70;;;5.90;;
22332;SDS011;11334;36.986;-121.936;2023-10-13T11:17:49;7.95;;;4.80;;
22332;SDS011;11334;36.986;-121.936;2023-10-13T11:20:20;7.85;;;4.53;;
22332;SDS011;11334;36.986;-121.936;2023-10-13T11:23:14;5.85;;;4.40;;
22332;SDS011;11334;36.986;-121.936;2023-10-13T11:25:40;8.70;;;4.50;;
22332;SDS011;11334;36.986;-121.936;2023-10-13T11:30:42;8.20;;;5.15;;
22332;SDS011;11334;36.986;-121.936;2023-10-13T11:33:15;6.05;;;4.50;;
22332;SDS011;11334;36.986;-121.936;2023-10-13T11:35:54;7.85;;;4.03;;
22332;SDS011;11334;36.986;-121.936;2023-10-13T11:38:31;5.38;;;4.32;;
22332;SDS011;11334;36.986;-121.936;2023-10-13T11:41:14;6.13;;;4.57;;
22332;SDS011;11334;36.986;-121.936;2023-10-13T11:43:41;7.20;;;4.50;;
22332;SDS011;11334;36.986;-121.936;2023-10-13T11:46:32;9.43;;;5.00;;
22332;SDS011;11334;36.986;-121.936;2023-10-13T11:49:04;7.20;;;4.45;;
22332;SDS011;11334;36.986;-121.936;2023-10-13T11:51:51;7.63;;;5.18;;
22332;SDS011;11334;36.986;-121.936;2023-10-13T11:54:19;7.40;;;4.65;;
22332;SDS011;11334;36.986;-121.936;2023-10-13T11:56:47;7.55;;;5.13;;
22332;SDS011;11334;36.986;-121.936;2023-10-13T11:59:15;8.25;;;4.82;;
22332;SDS011;11334;36.986;-121.936;2023-10-13T12:01:49;8.63;;;4.78;;
22332;SDS011;11334;36.986;-121.936;2023-10-13T12:04:35;8.40;;;5.15;;
22332;SDS011;11334;36.986;-121.936;2023-10-13T12:07:17;6.97;;;5.00;;
22332;SDS011;11334;36.986;-121.936;2023-10-13T12:10:02;9.60;;;4.95;;
22332;SDS011;11334;36.986;-121.936;2023-10-13T12:12:31;8.20;;;4.85;;
22332;SDS011;11334;36.986;-121.936;2023-10-13T12:15:06;8.85;;;4.97;;
22332;SDS011;11334;36.986;-121.936;2023-10-13T12:17:50;9.68;;;5.40;;
22332;SDS011;11334;36.986;-121.936;2023-10-13T12:20:16;11.10;;;6.03;;
22332;SDS011;11334;36.986;-121.936;2023-10-13T12:22:58;10.15;;;5.75;;
22332;SDS011;11334;36.986;-121.936;2023-10-13T12:25:36;10.13;;;5.63;;
22332;SDS011;11334;36.986;-121.936;2023-10-13T12:28:21;9.77;;;5.45;;
22332;SDS011;11334;36.986;-121.936;2023-10-13T12:30:49;7.78;;;5.38;;
22332;SDS011;11334;36.986;-121.936;2023-10-13T12:33:18;7.88;;;5.43;;
22332;SDS011;11334;36.986;-121.936;2023-10-13T12:36:01;9.73;;;5.72;;
22332;SDS011;11334;36.986;-121.936;2023-10-13T12:38:48;11.30;;;6.38;;
22332;SDS011;11334;36.986;-121.936;2023-10-13T12:41:15;10.35;;;6.10;;
22332;SDS011;11334;36.986;-121.936;2023-10-13T12:44:00;9.95;;;5.55;;
22332;SDS011;11334;36.986;-121.936;2023-10-13T12:46:44;8.57;;;5.65;;
22332;SDS011;11334;36.986;-121.936;2023-10-13T12:49:28;8.45;;;6.22;;
22332;SDS011;11334;36.986;-121.936;2023-10-13T12:52:13;12.07;;;6.28;;
22332;SDS011;11334;36.986;-121.936;2023-10-13T12:54:46;10.60;;;5.80;;
22332;SDS011;11334;36.986;-121.936;2023-10-13T12:57:27;10.25;;;7.13;;
22332;SDS011;11334;36.986;-121.936;2023-10-13T12:59:54;9.65;;;6.15;;
22332;SDS011;11334;36.986;-121.936;2023-10-13T13:02:20;12.10;;;6.95;;
22332;SDS011;11334;36.986;-121.936;2023-10-13T13:04:50;13.38;;;6.35;;
22332;SDS011;11334;36.986;-121.936;2023-10-13T13:07:22;10.43;;;6.72;;
22332;SDS011;11334;36.986;-121.936;2023-10-13T13:09:55;10.95;;;6.47;;
22332;SDS011;11334;36.986;-121.936;2023-10-13T13:12:25;14.18;;;6.85;;
22332;SDS011;11334;36.986;-121.936;2023-10-13T13:14:53;9.15;;;6.18;;
22332;SDS011;11334;36.986;-121.936;2023-10-13T13:17:23;13.07;;;7.80;;
22332;SDS011;11334;36.986;-121.936;2023-10-13T13:19:49;11.68;;;7.38;;
22332;SDS011;11334;36.986;-121.936;2023-10-13T13:22:15;9.95;;;6.85;;
22332;SDS011;11334;36.986;-121.936;2023-10-13T13:24:43;12.88;;;7.68;;
22332;SDS011;11334;36.986;-121.936;2023-10-13T13:27:14;14.18;;;7.32;;
22332;SDS011;11334;36.986;-121.936;2023-10-13T13:29:45;11.75;;;7.40;;
22332;SDS011;11334;36.986;-121.936;2023-10-13T13:32:12;13.98;;;7.63;;
22332;SDS011;11334;36.986;-121.936;2023-10-13T13:34:50;12.70;;;6.95;;
22332;SDS011;11334;36.986;-121.936;2023-10-13T13:37:24;11.02;;;7.63;;
22332;SDS011;11334;36.986;-121.936;2023-10-13T13:39:56;11.40;;;7.35;;
22332;SDS011;11334;36.986;-121.936;2023-10-13T13:42:39;13.85;;;7.55;;
22332;SDS011;11334;36.986;-121.936;2023-10-13T13:45:17;13.82;;;8.80;;
22332;SDS011;11334;36.986;-121.936;2023-10-13T13:47:50;11.85;;;7.38;;
22332;SDS011;11334;36.986;-121.936;2023-10-13T13:50:21;13.43;;;8.27;;
22332;SDS011;11334;36.986;-121.936;2023-10-13T13:52:56;11.20;;;7.47;;
22332;SDS011;11334;36.986;-121.936;2023-10-13T13:55:23;13.77;;;6.93;;
22332;SDS011;11334;36.986;-121.936;2023-10-13T13:57:56;14.98;;;8.02;;
22332;SDS011;11334;36.986;-121.936;2023-10-13T14:00:23;12.65;;;8.43;;
22332;SDS011;11334;36.986;-121.936;2023-10-13T14:03:06;9.57;;;7.47;;
22332;SDS011;11334;36.986;-121.936;2023-10-13T14:05:53;9.90;;;8.10;;
22332;SDS011;11334;36.986;-121.936;2023-10-13T14:08:19;11.68;;;7.05;;
22332;SDS011;11334;36.986;-121.936;2023-10-13T14:10:47;11.70;;;8.35;;
22332;SDS011;11334;36.986;-121.936;2023-10-13T14:13:31;11.75;;;7.05;;
22332;SDS011;11334;36.986;-121.936;2023-10-13T14:16:17;9.07;;;6.75;;
22332;SDS011;11334;36.986;-121.936;2023-10-13T14:18:47;14.52;;;7.45;;
22332;SDS011;11334;36.986;-121.936;2023-10-13T14:21:15;10.68;;;7.70;;
22332;SDS011;11334;36.986;-121.936;2023-10-13T14:23:49;8.52;;;7.03;;
22332;SDS011;11334;36.986;-121.936;2023-10-13T14:26:19;12.88;;;6.65;;
22332;SDS011;11334;36.986;-121.936;2023-10-13T14:28:47;10.90;;;6.50;;
22332;SDS011;11334;36.986;-121.936;2023-10-13T14:31:27;11.10;;;7.15;;
22332;SDS011;11334;36.986;-121.936;2023-10-13T14:33:54;9.90;;;6.60;;
22332;SDS011;11334;36.986;-121.936;2023-10-13T14:36:20;10.60;;;7.07;;
22332;SDS011;11334;36.986;-121.936;2023-10-13T14:38:46;10.25;;;6.53;;
22332;SDS011;11334;36.986;-121.936;2023-10-13T14:41:17;9.95;;;6.60;;
22332;SDS011;11334;36.986;-121.936;2023-10-13T14:43:44;11.13;;;6.40;;
22332;SDS011;11334;36.986;-121.936;2023-10-13T14:46:17;7.03;;;4.82;;
22332;SDS011;11334;36.986;-121.936;2023-10-13T14:48:48;10.00;;;5.75;;
22332;SDS011;11334;36.986;-121.936;2023-10-13T14:51:18;7.75;;;5.43;;
22332;SDS011;11334;36.986;-121.936;2023-10-13T14:53:44;6.63;;;5.53;;
22332;SDS011;11334;36.986;-121.936;2023-10-13T14:56:15;10.77;;;5.80;;
22332;SDS011;11334;36.986;-121.936;2023-10-13T14:58:43;9.35;;;5.90;;
22332;SDS011;11334;36.986;-121.936;2023-10-13T15:01:13;9.82;;;5.15;;
22332;SDS011;11334;36.986;-121.936;2023-10-13T15:03:43;8.48;;;4.55;;
22332;SDS011;11334;36.986;-121.936;2023-10-13T15:06:20;8.43;;;4.22;;
22332;SDS011;11334;36.986;-121.936;2023-10-13T15:08:52;10.85;;;3.78;;
22332;SDS011;11334;36.986;-121.936;2023-10-13T15:11:22;8.18;;;4.65;;
22332;SDS011;11334;36.986;-121.936;2023-10-13T15:14:08;6.10;;;4.05;;
22332;SDS011;11334;36.986;-121.936;2023-10-13T15:16:34;5.68;;;3.92;;